AIC126 KORD-VIDP
Flight info
| Callsign | AIC126 |
|---|---|
| Flight time | N/A |
| Altitude | 37000 |
| Route | RAYNR DCT BRTMN DCT TAAYZ DCT PECOK DCT YUY DCT NOWAA DCT PUVOK DCT VESMI/M088F370 DCT 60N050W 61N040W 61N030W 60N020W DCT ERAKA/N0501F370 DCT ETSOM DCT ORSUM DCT RENEQ DCT NOMKA DCT AKOSI DCT LAMSI DCT LIMRA DCT LURID DCT AKIKA DCT ENFAR DCT BITLA DCT KOGIS DCT KEA DCT SIT UL607 PAXIS Y707 OBRAN L321 REXUM M872 PMA Y214 RAPMA DCT MEVDO DCT ALROK DCT DEBIN DCT MIDGU M440 TULBU N881 RASKI L639 LAXOM J61 UUD A347 UKASO UKASO6G |
| Aircraft | B77W/H-SDE1E2E3FGHIJ2J3J4J5M1RWXY/LB1D1 |
Departure
| Time | 2026-05-03 23:47 |
|---|---|
| Airport | Chicago O'Hare International Airport (KORD) |
Arrival
| Time | N/A |
|---|---|
| Airport | Indira Gandhi International Airport (VIDP) |
| Time | Latitude | Longitude | Altitude | Speed | Heading |
|---|---|---|---|---|---|
| 2026-05-03 23:26 | 41.97340 | -87.89165 | 675 ft | 0 kts | 36° |
| 2026-05-03 23:41 | 41.97335 | -87.89170 | 675 ft | 4 kts | 37° |
| 2026-05-03 23:41 | 41.97313 | -87.89191 | 674 ft | 4 kts | 36° |
| 2026-05-03 23:41 | 41.97292 | -87.89214 | 675 ft | 4 kts | 47° |
| 2026-05-03 23:41 | 41.97276 | -87.89242 | 675 ft | 4 kts | 65° |
| 2026-05-03 23:42 | 41.97269 | -87.89275 | 675 ft | 2 kts | 89° |
| 2026-05-03 23:42 | 41.97269 | -87.89278 | 675 ft | 0 kts | 90° |
| 2026-05-03 23:44 | 41.97269 | -87.89267 | 675 ft | 6 kts | 90° |
| 2026-05-03 23:44 | 41.97269 | -87.89176 | 675 ft | 10 kts | 90° |
| 2026-05-03 23:44 | 41.97269 | -87.89079 | 675 ft | 10 kts | 90° |
| 2026-05-03 23:44 | 41.97267 | -87.88981 | 675 ft | 10 kts | 102° |
| 2026-05-03 23:45 | 41.97215 | -87.88914 | 675 ft | 11 kts | 130° |
| 2026-05-03 23:45 | 41.97198 | -87.88794 | 675 ft | 15 kts | 90° |
| 2026-05-03 23:45 | 41.97198 | -87.88644 | 675 ft | 16 kts | 90° |
| 2026-05-03 23:45 | 41.97188 | -87.88492 | 675 ft | 17 kts | 117° |
| 2026-05-03 23:46 | 41.97083 | -87.88444 | 674 ft | 17 kts | 178° |
| 2026-05-03 23:46 | 41.96957 | -87.88439 | 670 ft | 19 kts | 185° |
| 2026-05-03 23:46 | 41.96907 | -87.88586 | 669 ft | 23 kts | 267° |
| 2026-05-03 23:46 | 41.96905 | -87.89146 | 671 ft | 100 kts | 270° |
| 2026-05-03 23:47 | 41.96902 | -87.90440 | 672 ft | 176 kts | 270° |
| 2026-05-03 23:47 | 41.96869 | -87.92369 | 759 ft | 228 kts | 266° |
| 2026-05-03 23:47 | 41.96858 | -87.94497 | 1808 ft | 229 kts | 265° |
| 2026-05-03 23:47 | 41.96857 | -87.96650 | 2902 ft | 233 kts | 265° |
| 2026-05-03 23:48 | 41.96821 | -87.98844 | 3567 ft | 235 kts | 263° |
| 2026-05-03 23:48 | 41.96836 | -88.01057 | 3991 ft | 244 kts | 276° |
| 2026-05-03 23:48 | 41.97643 | -88.03167 | 4403 ft | 268 kts | 307° |
| 2026-05-03 23:48 | 41.99201 | -88.04672 | 4989 ft | 286 kts | 329° |
| 2026-05-03 23:49 | 42.01175 | -88.05336 | 5627 ft | 301 kts | 350° |
| 2026-05-03 23:49 | 42.03258 | -88.04996 | 6215 ft | 313 kts | 13° |